sensor_id;sensor_type;location;lat;lon;timestamp;P1;durP1;ratioP1;P2;durP2;ratioP2
27642;SDS011;15053;48.618;10.024;2023-08-06T00:00:30;5.10;;;4.60;;
27642;SDS011;15053;48.618;10.024;2023-08-06T00:02:56;7.20;;;5.40;;
27642;SDS011;15053;48.618;10.024;2023-08-06T00:05:23;6.55;;;5.70;;
27642;SDS011;15053;48.618;10.024;2023-08-06T00:07:50;6.43;;;4.85;;
27642;SDS011;15053;48.618;10.024;2023-08-06T00:10:17;5.65;;;5.10;;
27642;SDS011;15053;48.618;10.024;2023-08-06T00:12:43;5.80;;;4.72;;
27642;SDS011;15053;48.618;10.024;2023-08-06T00:15:10;6.07;;;4.90;;
27642;SDS011;15053;48.618;10.024;2023-08-06T00:17:37;7.25;;;5.78;;
27642;SDS011;15053;48.618;10.024;2023-08-06T00:20:05;6.90;;;5.85;;
27642;SDS011;15053;48.618;10.024;2023-08-06T00:22:36;6.82;;;5.57;;
27642;SDS011;15053;48.618;10.024;2023-08-06T00:27:31;8.32;;;5.97;;
27642;SDS011;15053;48.618;10.024;2023-08-06T00:29:58;6.40;;;4.90;;
27642;SDS011;15053;48.618;10.024;2023-08-06T00:32:25;6.25;;;5.15;;
27642;SDS011;15053;48.618;10.024;2023-08-06T00:34:52;9.48;;;6.32;;
27642;SDS011;15053;48.618;10.024;2023-08-06T00:37:18;9.40;;;5.00;;
27642;SDS011;15053;48.618;10.024;2023-08-06T00:39:45;6.75;;;5.50;;
27642;SDS011;15053;48.618;10.024;2023-08-06T00:42:11;6.32;;;5.25;;
27642;SDS011;15053;48.618;10.024;2023-08-06T00:44:38;10.02;;;6.22;;
27642;SDS011;15053;48.618;10.024;2023-08-06T00:47:07;8.23;;;5.75;;
27642;SDS011;15053;48.618;10.024;2023-08-06T00:49:35;10.10;;;5.50;;
27642;SDS011;15053;48.618;10.024;2023-08-06T00:52:05;12.25;;;6.53;;
27642;SDS011;15053;48.618;10.024;2023-08-06T00:54:36;7.15;;;5.60;;
27642;SDS011;15053;48.618;10.024;2023-08-06T00:57:03;16.13;;;11.90;;
27642;SDS011;15053;48.618;10.024;2023-08-06T00:59:33;9.02;;;7.43;;
27642;SDS011;15053;48.618;10.024;2023-08-06T01:02:01;12.63;;;7.13;;
27642;SDS011;15053;48.618;10.024;2023-08-06T01:04:28;9.35;;;6.00;;
27642;SDS011;15053;48.618;10.024;2023-08-06T01:07:14;7.18;;;5.07;;
27642;SDS011;15053;48.618;10.024;2023-08-06T01:09:50;6.82;;;4.80;;
27642;SDS011;15053;48.618;10.024;2023-08-06T01:15:11;7.45;;;5.55;;
27642;SDS011;15053;48.618;10.024;2023-08-06T01:17:45;6.95;;;5.45;;
27642;SDS011;15053;48.618;10.024;2023-08-06T01:20:12;8.88;;;5.90;;
27642;SDS011;15053;48.618;10.024;2023-08-06T01:22:38;7.35;;;5.60;;
27642;SDS011;15053;48.618;10.024;2023-08-06T01:25:05;9.25;;;6.85;;
27642;SDS011;15053;48.618;10.024;2023-08-06T01:30:16;6.25;;;5.20;;
27642;SDS011;15053;48.618;10.024;2023-08-06T01:32:48;7.65;;;6.10;;
27642;SDS011;15053;48.618;10.024;2023-08-06T01:35:17;7.45;;;5.97;;
27642;SDS011;15053;48.618;10.024;2023-08-06T01:37:45;7.88;;;5.50;;
27642;SDS011;15053;48.618;10.024;2023-08-06T01:40:13;9.70;;;7.25;;
27642;SDS011;15053;48.618;10.024;2023-08-06T01:42:40;11.45;;;7.95;;
27642;SDS011;15053;48.618;10.024;2023-08-06T01:45:07;13.13;;;6.05;;
27642;SDS011;15053;48.618;10.024;2023-08-06T01:47:34;7.45;;;6.28;;
27642;SDS011;15053;48.618;10.024;2023-08-06T01:50:02;8.77;;;6.13;;
27642;SDS011;15053;48.618;10.024;2023-08-06T01:52:29;7.72;;;5.35;;
27642;SDS011;15053;48.618;10.024;2023-08-06T01:54:56;10.02;;;5.50;;
27642;SDS011;15053;48.618;10.024;2023-08-06T01:57:22;7.10;;;5.55;;
27642;SDS011;15053;48.618;10.024;2023-08-06T01:59:49;9.18;;;6.03;;
27642;SDS011;15053;48.618;10.024;2023-08-06T03:01:01;4.63;;;4.00;;
27642;SDS011;15053;48.618;10.024;2023-08-06T03:03:39;6.38;;;4.10;;
27642;SDS011;15053;48.618;10.024;2023-08-06T03:06:07;8.90;;;4.80;;
27642;SDS011;15053;48.618;10.024;2023-08-06T03:08:41;5.47;;;3.95;;
27642;SDS011;15053;48.618;10.024;2023-08-06T03:11:07;5.18;;;3.63;;
27642;SDS011;15053;48.618;10.024;2023-08-06T03:13:34;5.07;;;4.20;;
27642;SDS011;15053;48.618;10.024;2023-08-06T03:16:01;6.35;;;3.92;;
27642;SDS011;15053;48.618;10.024;2023-08-06T03:18:29;4.07;;;3.67;;
27642;SDS011;15053;48.618;10.024;2023-08-06T03:20:58;6.57;;;4.10;;
27642;SDS011;15053;48.618;10.024;2023-08-06T03:23:28;8.35;;;4.47;;
27642;SDS011;15053;48.618;10.024;2023-08-06T03:25:55;6.18;;;4.57;;
27642;SDS011;15053;48.618;10.024;2023-08-06T03:28:22;7.45;;;4.10;;
27642;SDS011;15053;48.618;10.024;2023-08-06T03:30:58;8.90;;;4.03;;
27642;SDS011;15053;48.618;10.024;2023-08-06T03:33:35;4.72;;;4.13;;
27642;SDS011;15053;48.618;10.024;2023-08-06T03:36:05;5.97;;;4.30;;
27642;SDS011;15053;48.618;10.024;2023-08-06T03:38:33;6.30;;;4.75;;
27642;SDS011;15053;48.618;10.024;2023-08-06T03:41:04;10.75;;;4.85;;
27642;SDS011;15053;48.618;10.024;2023-08-06T03:43:30;7.18;;;5.40;;
27642;SDS011;15053;48.618;10.024;2023-08-06T03:45:57;6.28;;;4.90;;
27642;SDS011;15053;48.618;10.024;2023-08-06T03:48:24;6.40;;;5.43;;
27642;SDS011;15053;48.618;10.024;2023-08-06T03:50:50;8.82;;;5.03;;
27642;SDS011;15053;48.618;10.024;2023-08-06T03:53:18;6.40;;;5.00;;
27642;SDS011;15053;48.618;10.024;2023-08-06T03:55:44;8.00;;;4.75;;
27642;SDS011;15053;48.618;10.024;2023-08-06T03:58:11;7.38;;;5.03;;
27642;SDS011;15053;48.618;10.024;2023-08-06T04:00:38;14.13;;;6.18;;
27642;SDS011;15053;48.618;10.024;2023-08-06T04:03:05;7.88;;;5.97;;
27642;SDS011;15053;48.618;10.024;2023-08-06T04:05:33;10.00;;;6.32;;
27642;SDS011;15053;48.618;10.024;2023-08-06T04:07:59;8.18;;;5.93;;
27642;SDS011;15053;48.618;10.024;2023-08-06T04:10:26;8.43;;;7.00;;
27642;SDS011;15053;48.618;10.024;2023-08-06T04:12:52;8.85;;;7.65;;
27642;SDS011;15053;48.618;10.024;2023-08-06T04:15:19;10.85;;;7.68;;
27642;SDS011;15053;48.618;10.024;2023-08-06T04:17:45;15.00;;;11.88;;
27642;SDS011;15053;48.618;10.024;2023-08-06T04:20:13;10.10;;;8.93;;
27642;SDS011;15053;48.618;10.024;2023-08-06T04:22:39;13.10;;;9.70;;
27642;SDS011;15053;48.618;10.024;2023-08-06T04:25:06;12.70;;;8.75;;
27642;SDS011;15053;48.618;10.024;2023-08-06T04:27:33;11.20;;;9.10;;
27642;SDS011;15053;48.618;10.024;2023-08-06T04:30:01;11.18;;;8.65;;
27642;SDS011;15053;48.618;10.024;2023-08-06T04:32:28;9.38;;;7.93;;
27642;SDS011;15053;48.618;10.024;2023-08-06T04:34:56;9.70;;;7.32;;
27642;SDS011;15053;48.618;10.024;2023-08-06T04:37:23;12.60;;;8.77;;
27642;SDS011;15053;48.618;10.024;2023-08-06T04:39:50;11.10;;;7.65;;
27642;SDS011;15053;48.618;10.024;2023-08-06T04:42:18;10.70;;;8.18;;
27642;SDS011;15053;48.618;10.024;2023-08-06T04:44:44;9.50;;;8.50;;
27642;SDS011;15053;48.618;10.024;2023-08-06T04:47:11;10.27;;;7.78;;
27642;SDS011;15053;48.618;10.024;2023-08-06T04:49:37;12.93;;;7.97;;
27642;SDS011;15053;48.618;10.024;2023-08-06T04:52:04;12.30;;;8.50;;
27642;SDS011;15053;48.618;10.024;2023-08-06T04:54:31;11.63;;;8.75;;
27642;SDS011;15053;48.618;10.024;2023-08-06T04:56:58;11.10;;;8.10;;
27642;SDS011;15053;48.618;10.024;2023-08-06T04:59:24;10.85;;;8.77;;
27642;SDS011;15053;48.618;10.024;2023-08-06T05:01:51;10.45;;;7.68;;
27642;SDS011;15053;48.618;10.024;2023-08-06T05:04:18;9.75;;;7.43;;
27642;SDS011;15053;48.618;10.024;2023-08-06T05:06:44;9.10;;;8.13;;
27642;SDS011;15053;48.618;10.024;2023-08-06T05:09:11;9.75;;;7.43;;
27642;SDS011;15053;48.618;10.024;2023-08-06T05:11:37;8.13;;;6.78;;
27642;SDS011;15053;48.618;10.024;2023-08-06T05:14:04;11.43;;;7.75;;
27642;SDS011;15053;48.618;10.024;2023-08-06T05:16:30;7.78;;;6.63;;
27642;SDS011;15053;48.618;10.024;2023-08-06T05:18:57;8.07;;;6.07;;
27642;SDS011;15053;48.618;10.024;2023-08-06T05:21:23;7.05;;;5.72;;
27642;SDS011;15053;48.618;10.024;2023-08-06T05:23:50;7.70;;;6.25;;
27642;SDS011;15053;48.618;10.024;2023-08-06T05:26:16;8.63;;;5.60;;
27642;SDS011;15053;48.618;10.024;2023-08-06T05:28:45;6.60;;;4.70;;
27642;SDS011;15053;48.618;10.024;2023-08-06T05:31:12;6.65;;;4.43;;
27642;SDS011;15053;48.618;10.024;2023-08-06T05:33:39;6.72;;;4.35;;
27642;SDS011;15053;48.618;10.024;2023-08-06T05:36:05;4.25;;;3.80;;
27642;SDS011;15053;48.618;10.024;2023-08-06T05:38:32;5.07;;;3.70;;
27642;SDS011;15053;48.618;10.024;2023-08-06T05:40:58;7.15;;;3.53;;
27642;SDS011;15053;48.618;10.024;2023-08-06T05:43:25;5.55;;;3.00;;
27642;SDS011;15053;48.618;10.024;2023-08-06T05:45:51;4.10;;;3.30;;
27642;SDS011;15053;48.618;10.024;2023-08-06T05:48:18;5.45;;;3.15;;
27642;SDS011;15053;48.618;10.024;2023-08-06T05:50:44;5.20;;;3.63;;
27642;SDS011;15053;48.618;10.024;2023-08-06T05:53:11;9.23;;;3.30;;
27642;SDS011;15053;48.618;10.024;2023-08-06T05:55:38;4.60;;;3.03;;
27642;SDS011;15053;48.618;10.024;2023-08-06T05:58:05;5.80;;;2.95;;
27642;SDS011;15053;48.618;10.024;2023-08-06T06:00:31;6.07;;;2.90;;
27642;SDS011;15053;48.618;10.024;2023-08-06T06:02:58;4.15;;;2.60;;
27642;SDS011;15053;48.618;10.024;2023-08-06T06:05:25;7.88;;;2.80;;
27642;SDS011;15053;48.618;10.024;2023-08-06T06:07:51;3.30;;;2.63;;
27642;SDS011;15053;48.618;10.024;2023-08-06T06:10:18;3.38;;;2.58;;
27642;SDS011;15053;48.618;10.024;2023-08-06T06:12:44;4.03;;;2.50;;
27642;SDS011;15053;48.618;10.024;2023-08-06T06:15:11;4.43;;;2.45;;
27642;SDS011;15053;48.618;10.024;2023-08-06T06:17:37;5.82;;;3.22;;
27642;SDS011;15053;48.618;10.024;2023-08-06T06:20:04;3.88;;;2.60;;
27642;SDS011;15053;48.618;10.024;2023-08-06T06:22:31;6.53;;;2.92;;
27642;SDS011;15053;48.618;10.024;2023-08-06T06:24:57;4.35;;;2.78;;
27642;SDS011;15053;48.618;10.024;2023-08-06T06:27:24;3.83;;;3.10;;
27642;SDS011;15053;48.618;10.024;2023-08-06T06:29:51;5.30;;;2.80;;
27642;SDS011;15053;48.618;10.024;2023-08-06T06:32:18;2.78;;;2.47;;
27642;SDS011;15053;48.618;10.024;2023-08-06T06:34:45;4.13;;;2.40;;
27642;SDS011;15053;48.618;10.024;2023-08-06T06:37:11;7.13;;;2.17;;
27642;SDS011;15053;48.618;10.024;2023-08-06T06:39:38;20.50;;;3.33;;
27642;SDS011;15053;48.618;10.024;2023-08-06T06:42:05;3.30;;;2.30;;
27642;SDS011;15053;48.618;10.024;2023-08-06T06:44:37;2.72;;;2.25;;
27642;SDS011;15053;48.618;10.024;2023-08-06T06:47:03;3.30;;;2.58;;
27642;SDS011;15053;48.618;10.024;2023-08-06T06:49:30;4.57;;;1.98;;
27642;SDS011;15053;48.618;10.024;2023-08-06T06:51:56;2.63;;;1.60;;
27642;SDS011;15053;48.618;10.024;2023-08-06T06:54:23;3.33;;;1.80;;
27642;SDS011;15053;48.618;10.024;2023-08-06T06:56:50;2.13;;;1.40;;
27642;SDS011;15053;48.618;10.024;2023-08-06T06:59:16;1.90;;;1.38;;
27642;SDS011;15053;48.618;10.024;2023-08-06T07:01:42;4.60;;;1.33;;
27642;SDS011;15053;48.618;10.024;2023-08-06T07:04:09;1.30;;;1.10;;
27642;SDS011;15053;48.618;10.024;2023-08-06T07:06:35;4.43;;;1.27;;
27642;SDS011;15053;48.618;10.024;2023-08-06T07:09:02;2.17;;;1.13;;
27642;SDS011;15053;48.618;10.024;2023-08-06T07:11:29;3.03;;;1.02;;
27642;SDS011;15053;48.618;10.024;2023-08-06T07:13:56;0.80;;;0.80;;
27642;SDS011;15053;48.618;10.024;2023-08-06T07:16:24;1.30;;;1.08;;
27642;SDS011;15053;48.618;10.024;2023-08-06T07:18:52;5.47;;;1.17;;
27642;SDS011;15053;48.618;10.024;2023-08-06T07:21:20;1.33;;;0.95;;
27642;SDS011;15053;48.618;10.024;2023-08-06T07:23:46;1.00;;;0.70;;
27642;SDS011;15053;48.618;10.024;2023-08-06T07:26:16;1.15;;;1.00;;
27642;SDS011;15053;48.618;10.024;2023-08-06T07:28:43;3.85;;;0.98;;
27642;SDS011;15053;48.618;10.024;2023-08-06T07:31:11;1.52;;;0.68;;
27642;SDS011;15053;48.618;10.024;2023-08-06T07:33:37;3.08;;;0.82;;
27642;SDS011;15053;48.618;10.024;2023-08-06T07:36:07;1.20;;;0.60;;
27642;SDS011;15053;48.618;10.024;2023-08-06T07:38:37;1.33;;;0.70;;
27642;SDS011;15053;48.618;10.024;2023-08-06T07:41:04;0.90;;;0.50;;
27642;SDS011;15053;48.618;10.024;2023-08-06T07:43:31;1.30;;;0.57;;
27642;SDS011;15053;48.618;10.024;2023-08-06T07:45:58;0.73;;;0.60;;
27642;SDS011;15053;48.618;10.024;2023-08-06T07:48:26;0.70;;;0.70;;
27642;SDS011;15053;48.618;10.024;2023-08-06T07:50:54;1.08;;;0.60;;
27642;SDS011;15053;48.618;10.024;2023-08-06T07:53:21;2.15;;;1.08;;
27642;SDS011;15053;48.618;10.024;2023-08-06T07:55:52;3.55;;;0.70;;
27642;SDS011;15053;48.618;10.024;2023-08-06T07:58:20;1.65;;;0.60;;
27642;SDS011;15053;48.618;10.024;2023-08-06T08:00:47;0.85;;;0.60;;
27642;SDS011;15053;48.618;10.024;2023-08-06T08:03:14;0.80;;;0.65;;
27642;SDS011;15053;48.618;10.024;2023-08-06T08:05:42;3.17;;;0.60;;
27642;SDS011;15053;48.618;10.024;2023-08-06T08:08:09;0.60;;;0.50;;
27642;SDS011;15053;48.618;10.024;2023-08-06T08:10:36;0.80;;;0.50;;
27642;SDS011;15053;48.618;10.024;2023-08-06T08:13:04;1.65;;;0.38;;
27642;SDS011;15053;48.618;10.024;2023-08-06T08:15:32;0.55;;;0.40;;
27642;SDS011;15053;48.618;10.024;2023-08-06T08:17:59;0.85;;;0.45;;
27642;SDS011;15053;48.618;10.024;2023-08-06T08:20:26;0.63;;;0.30;;
27642;SDS011;15053;48.618;10.024;2023-08-06T08:22:58;0.73;;;0.40;;
27642;SDS011;15053;48.618;10.024;2023-08-06T08:25:26;0.30;;;0.30;;
27642;SDS011;15053;48.618;10.024;2023-08-06T08:27:56;0.40;;;0.40;;
27642;SDS011;15053;48.618;10.024;2023-08-06T08:30:23;0.70;;;0.50;;
27642;SDS011;15053;48.618;10.024;2023-08-06T08:32:51;1.75;;;0.30;;
27642;SDS011;15053;48.618;10.024;2023-08-06T08:35:18;2.65;;;0.90;;
27642;SDS011;15053;48.618;10.024;2023-08-06T08:37:44;1.33;;;0.95;;
27642;SDS011;15053;48.618;10.024;2023-08-06T08:40:11;0.57;;;0.50;;
27642;SDS011;15053;48.618;10.024;2023-08-06T08:42:38;0.38;;;0.38;;
27642;SDS011;15053;48.618;10.024;2023-08-06T08:45:04;0.80;;;0.40;;
27642;SDS011;15053;48.618;10.024;2023-08-06T08:47:43;0.30;;;0.30;;
27642;SDS011;15053;48.618;10.024;2023-08-06T08:50:10;1.10;;;0.50;;
27642;SDS011;15053;48.618;10.024;2023-08-06T08:52:41;0.45;;;0.40;;
27642;SDS011;15053;48.618;10.024;2023-08-06T08:55:11;0.57;;;0.50;;
27642;SDS011;15053;48.618;10.024;2023-08-06T08:57:40;1.13;;;0.20;;
27642;SDS011;15053;48.618;10.024;2023-08-06T09:00:07;0.38;;;0.20;;
27642;SDS011;15053;48.618;10.024;2023-08-06T09:02:33;0.40;;;0.20;;
27642;SDS011;15053;48.618;10.024;2023-08-06T09:05:00;0.20;;;0.20;;
27642;SDS011;15053;48.618;10.024;2023-08-06T09:07:34;1.17;;;0.30;;
27642;SDS011;15053;48.618;10.024;2023-08-06T09:10:05;0.20;;;0.20;;
27642;SDS011;15053;48.618;10.024;2023-08-06T09:12:36;0.38;;;0.30;;
27642;SDS011;15053;48.618;10.024;2023-08-06T09:15:03;0.47;;;0.40;;
27642;SDS011;15053;48.618;10.024;2023-08-06T09:17:31;0.63;;;0.30;;
27642;SDS011;15053;48.618;10.024;2023-08-06T09:19:57;0.28;;;0.28;;
27642;SDS011;15053;48.618;10.024;2023-08-06T09:22:24;0.30;;;0.30;;
27642;SDS011;15053;48.618;10.024;2023-08-06T09:24:50;2.03;;;0.30;;
27642;SDS011;15053;48.618;10.024;2023-08-06T09:27:17;0.80;;;0.20;;
27642;SDS011;15053;48.618;10.024;2023-08-06T09:29:45;0.40;;;0.20;;
27642;SDS011;15053;48.618;10.024;2023-08-06T09:32:12;0.25;;;0.25;;
27642;SDS011;15053;48.618;10.024;2023-08-06T09:34:39;0.20;;;0.20;;
27642;SDS011;15053;48.618;10.024;2023-08-06T09:37:08;0.20;;;0.20;;
27642;SDS011;15053;48.618;10.024;2023-08-06T09:39:37;0.35;;;0.35;;
27642;SDS011;15053;48.618;10.024;2023-08-06T09:42:04;0.52;;;0.40;;
27642;SDS011;15053;48.618;10.024;2023-08-06T09:44:32;0.32;;;0.30;;
27642;SDS011;15053;48.618;10.024;2023-08-06T09:47:00;1.58;;;0.30;;
27642;SDS011;15053;48.618;10.024;2023-08-06T09:49:28;0.20;;;0.20;;
27642;SDS011;15053;48.618;10.024;2023-08-06T09:52:12;0.30;;;0.30;;
27642;SDS011;15053;48.618;10.024;2023-08-06T09:54:39;0.22;;;0.22;;
27642;SDS011;15053;48.618;10.024;2023-08-06T09:57:06;0.20;;;0.10;;
27642;SDS011;15053;48.618;10.024;2023-08-06T09:59:33;0.75;;;0.20;;
27642;SDS011;15053;48.618;10.024;2023-08-06T10:02:01;0.40;;;0.20;;
27642;SDS011;15053;48.618;10.024;2023-08-06T10:04:29;0.20;;;0.20;;
27642;SDS011;15053;48.618;10.024;2023-08-06T10:07:06;1.70;;;0.20;;
27642;SDS011;15053;48.618;10.024;2023-08-06T10:09:33;0.20;;;0.10;;
27642;SDS011;15053;48.618;10.024;2023-08-06T10:12:00;0.28;;;0.28;;
27642;SDS011;15053;48.618;10.024;2023-08-06T10:14:33;1.20;;;0.22;;
27642;SDS011;15053;48.618;10.024;2023-08-06T10:17:03;0.32;;;0.30;;
27642;SDS011;15053;48.618;10.024;2023-08-06T10:19:31;0.17;;;0.17;;
27642;SDS011;15053;48.618;10.024;2023-08-06T10:27:31;0.35;;;0.25;;
27642;SDS011;15053;48.618;10.024;2023-08-06T10:33:01;0.30;;;0.30;;
27642;SDS011;15053;48.618;10.024;2023-08-06T10:38:20;0.20;;;0.20;;
27642;SDS011;15053;48.618;10.024;2023-08-06T10:43:28;0.10;;;0.10;;
27642;SDS011;15053;48.618;10.024;2023-08-06T10:45:56;0.30;;;0.30;;
27642;SDS011;15053;48.618;10.024;2023-08-06T10:48:31;0.20;;;0.20;;
27642;SDS011;15053;48.618;10.024;2023-08-06T10:51:00;0.20;;;0.20;;
27642;SDS011;15053;48.618;10.024;2023-08-06T10:53:30;0.30;;;0.30;;
27642;SDS011;15053;48.618;10.024;2023-08-06T10:56:00;0.20;;;0.20;;
27642;SDS011;15053;48.618;10.024;2023-08-06T10:58:33;0.10;;;0.10;;
27642;SDS011;15053;48.618;10.024;2023-08-06T11:01:00;0.45;;;0.30;;
27642;SDS011;15053;48.618;10.024;2023-08-06T11:03:27;0.20;;;0.20;;
27642;SDS011;15053;48.618;10.024;2023-08-06T11:05:54;0.10;;;0.10;;
27642;SDS011;15053;48.618;10.024;2023-08-06T11:08:27;0.20;;;0.20;;
27642;SDS011;15053;48.618;10.024;2023-08-06T11:10:54;0.47;;;0.20;;
27642;SDS011;15053;48.618;10.024;2023-08-06T11:13:29;0.20;;;0.13;;
27642;SDS011;15053;48.618;10.024;2023-08-06T11:15:56;0.15;;;0.15;;
27642;SDS011;15053;48.618;10.024;2023-08-06T11:18:22;0.10;;;0.10;;
27642;SDS011;15053;48.618;10.024;2023-08-06T11:20:49;0.10;;;0.10;;
27642;SDS011;15053;48.618;10.024;2023-08-06T11:23:15;0.90;;;0.30;;
27642;SDS011;15053;48.618;10.024;2023-08-06T11:25:45;1.08;;;0.32;;
27642;SDS011;15053;48.618;10.024;2023-08-06T11:28:12;0.10;;;0.10;;
27642;SDS011;15053;48.618;10.024;2023-08-06T11:30:39;0.30;;;0.20;;
27642;SDS011;15053;48.618;10.024;2023-08-06T11:33:06;0.10;;;0.10;;
27642;SDS011;15053;48.618;10.024;2023-08-06T11:35:34;1.85;;;0.40;;
27642;SDS011;15053;48.618;10.024;2023-08-06T11:38:02;0.20;;;0.20;;
27642;SDS011;15053;48.618;10.024;2023-08-06T11:40:29;0.85;;;0.35;;
27642;SDS011;15053;48.618;10.024;2023-08-06T11:42:55;0.20;;;0.20;;
27642;SDS011;15053;48.618;10.024;2023-08-06T11:45:22;0.20;;;0.20;;
27642;SDS011;15053;48.618;10.024;2023-08-06T11:47:51;0.10;;;0.10;;
27642;SDS011;15053;48.618;10.024;2023-08-06T11:50:26;0.15;;;0.10;;
27642;SDS011;15053;48.618;10.024;2023-08-06T11:52:57;0.10;;;0.10;;
27642;SDS011;15053;48.618;10.024;2023-08-06T11:55:25;0.20;;;0.20;;
27642;SDS011;15053;48.618;10.024;2023-08-06T11:57:54;0.10;;;0.10;;
27642;SDS011;15053;48.618;10.024;2023-08-06T12:00:22;0.17;;;0.17;;
27642;SDS011;15053;48.618;10.024;2023-08-06T12:02:50;0.75;;;0.20;;
27642;SDS011;15053;48.618;10.024;2023-08-06T12:05:19;0.10;;;0.10;;
27642;SDS011;15053;48.618;10.024;2023-08-06T12:07:47;0.13;;;0.13;;
27642;SDS011;15053;48.618;10.024;2023-08-06T12:10:15;0.30;;;0.20;;
27642;SDS011;15053;48.618;10.024;2023-08-06T12:12:43;0.13;;;0.13;;
27642;SDS011;15053;48.618;10.024;2023-08-06T12:15:10;0.10;;;0.10;;
27642;SDS011;15053;48.618;10.024;2023-08-06T12:17:37;0.20;;;0.20;;
27642;SDS011;15053;48.618;10.024;2023-08-06T12:20:05;0.68;;;0.30;;
27642;SDS011;15053;48.618;10.024;2023-08-06T12:22:33;0.20;;;0.20;;
27642;SDS011;15053;48.618;10.024;2023-08-06T12:25:07;0.30;;;0.30;;
27642;SDS011;15053;48.618;10.024;2023-08-06T12:30:02;0.52;;;0.30;;
27642;SDS011;15053;48.618;10.024;2023-08-06T12:32:30;0.47;;;0.40;;
27642;SDS011;15053;48.618;10.024;2023-08-06T12:34:56;0.50;;;0.50;;
27642;SDS011;15053;48.618;10.024;2023-08-06T12:37:24;0.70;;;0.47;;
27642;SDS011;15053;48.618;10.024;2023-08-06T12:39:51;1.45;;;0.55;;
27642;SDS011;15053;48.618;10.024;2023-08-06T12:42:18;0.98;;;0.63;;
27642;SDS011;15053;48.618;10.024;2023-08-06T12:44:44;0.50;;;0.50;;
27642;SDS011;15053;48.618;10.024;2023-08-06T12:47:11;1.42;;;0.57;;
27642;SDS011;15053;48.618;10.024;2023-08-06T12:49:37;1.10;;;0.50;;
27642;SDS011;15053;48.618;10.024;2023-08-06T12:52:04;1.25;;;0.60;;
27642;SDS011;15053;48.618;10.024;2023-08-06T12:54:32;1.13;;;0.50;;
27642;SDS011;15053;48.618;10.024;2023-08-06T12:57:03;1.17;;;0.63;;
27642;SDS011;15053;48.618;10.024;2023-08-06T12:59:31;0.63;;;0.50;;
27642;SDS011;15053;48.618;10.024;2023-08-06T13:01:59;0.90;;;0.80;;
27642;SDS011;15053;48.618;10.024;2023-08-06T13:04:26;1.60;;;0.50;;
27642;SDS011;15053;48.618;10.024;2023-08-06T13:06:54;2.00;;;0.70;;
27642;SDS011;15053;48.618;10.024;2023-08-06T13:09:20;2.67;;;0.63;;
27642;SDS011;15053;48.618;10.024;2023-08-06T13:11:47;0.75;;;0.70;;
27642;SDS011;15053;48.618;10.024;2023-08-06T13:14:16;0.57;;;0.57;;
27642;SDS011;15053;48.618;10.024;2023-08-06T13:16:43;0.90;;;0.70;;
27642;SDS011;15053;48.618;10.024;2023-08-06T13:19:10;0.98;;;0.88;;
27642;SDS011;15053;48.618;10.024;2023-08-06T13:24:16;0.68;;;0.68;;
27642;SDS011;15053;48.618;10.024;2023-08-06T13:26:42;0.80;;;0.80;;
27642;SDS011;15053;48.618;10.024;2023-08-06T13:29:09;2.58;;;0.93;;
27642;SDS011;15053;48.618;10.024;2023-08-06T13:31:36;2.15;;;1.00;;
27642;SDS011;15053;48.618;10.024;2023-08-06T13:34:03;0.75;;;0.75;;
27642;SDS011;15053;48.618;10.024;2023-08-06T13:36:31;0.90;;;0.63;;
27642;SDS011;15053;48.618;10.024;2023-08-06T13:38:58;1.98;;;0.80;;
27642;SDS011;15053;48.618;10.024;2023-08-06T13:41:24;2.30;;;1.00;;
27642;SDS011;15053;48.618;10.024;2023-08-06T13:43:51;1.38;;;0.68;;
27642;SDS011;15053;48.618;10.024;2023-08-06T13:46:17;2.83;;;0.90;;
27642;SDS011;15053;48.618;10.024;2023-08-06T13:48:47;4.60;;;0.88;;
27642;SDS011;15053;48.618;10.024;2023-08-06T13:51:17;0.77;;;0.77;;
27642;SDS011;15053;48.618;10.024;2023-08-06T13:53:43;1.85;;;1.00;;
27642;SDS011;15053;48.618;10.024;2023-08-06T13:56:10;1.27;;;1.17;;
27642;SDS011;15053;48.618;10.024;2023-08-06T13:58:37;1.50;;;1.25;;
27642;SDS011;15053;48.618;10.024;2023-08-06T14:01:04;1.73;;;1.17;;
27642;SDS011;15053;48.618;10.024;2023-08-06T14:03:32;1.30;;;1.20;;
27642;SDS011;15053;48.618;10.024;2023-08-06T14:05:59;2.33;;;1.10;;
27642;SDS011;15053;48.618;10.024;2023-08-06T14:08:26;1.30;;;1.10;;
27642;SDS011;15053;48.618;10.024;2023-08-06T14:10:53;1.95;;;0.90;;
27642;SDS011;15053;48.618;10.024;2023-08-06T14:13:21;1.00;;;0.90;;
27642;SDS011;15053;48.618;10.024;2023-08-06T14:15:48;1.42;;;1.10;;
27642;SDS011;15053;48.618;10.024;2023-08-06T14:18:15;1.80;;;0.98;;
27642;SDS011;15053;48.618;10.024;2023-08-06T14:20:42;1.10;;;0.98;;
27642;SDS011;15053;48.618;10.024;2023-08-06T14:23:09;1.40;;;0.90;;
27642;SDS011;15053;48.618;10.024;2023-08-06T14:25:37;1.25;;;1.00;;
27642;SDS011;15053;48.618;10.024;2023-08-06T14:28:04;0.93;;;0.82;;
27642;SDS011;15053;48.618;10.024;2023-08-06T14:30:33;2.17;;;1.10;;
27642;SDS011;15053;48.618;10.024;2023-08-06T14:33:01;0.82;;;0.82;;
27642;SDS011;15053;48.618;10.024;2023-08-06T14:35:49;0.98;;;0.88;;
27642;SDS011;15053;48.618;10.024;2023-08-06T14:38:16;2.03;;;1.05;;
27642;SDS011;15053;48.618;10.024;2023-08-06T14:40:43;1.67;;;1.13;;
27642;SDS011;15053;48.618;10.024;2023-08-06T14:43:10;1.30;;;1.20;;
27642;SDS011;15053;48.618;10.024;2023-08-06T14:45:40;1.27;;;0.77;;
27642;SDS011;15053;48.618;10.024;2023-08-06T14:48:06;0.63;;;0.63;;
27642;SDS011;15053;48.618;10.024;2023-08-06T14:50:33;0.85;;;0.80;;
27642;SDS011;15053;48.618;10.024;2023-08-06T14:53:00;0.98;;;0.93;;
27642;SDS011;15053;48.618;10.024;2023-08-06T14:55:30;1.08;;;0.80;;
27642;SDS011;15053;48.618;10.024;2023-08-06T14:57:58;1.23;;;0.75;;
27642;SDS011;15053;48.618;10.024;2023-08-06T15:00:25;1.27;;;1.00;;
27642;SDS011;15053;48.618;10.024;2023-08-06T15:02:52;0.60;;;0.60;;
27642;SDS011;15053;48.618;10.024;2023-08-06T15:05:19;0.93;;;0.80;;
27642;SDS011;15053;48.618;10.024;2023-08-06T15:07:45;0.70;;;0.70;;
27642;SDS011;15053;48.618;10.024;2023-08-06T15:10:13;1.02;;;1.00;;
27642;SDS011;15053;48.618;10.024;2023-08-06T15:12:52;1.85;;;1.27;;
27642;SDS011;15053;48.618;10.024;2023-08-06T15:15:19;1.15;;;0.90;;
27642;SDS011;15053;48.618;10.024;2023-08-06T15:17:46;1.13;;;1.02;;
27642;SDS011;15053;48.618;10.024;2023-08-06T15:20:12;2.05;;;1.40;;
27642;SDS011;15053;48.618;10.024;2023-08-06T15:22:39;1.20;;;1.10;;
27642;SDS011;15053;48.618;10.024;2023-08-06T15:25:06;1.20;;;0.85;;
27642;SDS011;15053;48.618;10.024;2023-08-06T15:27:33;2.15;;;1.15;;
27642;SDS011;15053;48.618;10.024;2023-08-06T15:30:00;0.98;;;0.90;;
27642;SDS011;15053;48.618;10.024;2023-08-06T15:32:27;2.53;;;1.20;;
27642;SDS011;15053;48.618;10.024;2023-08-06T15:34:54;1.27;;;0.93;;
27642;SDS011;15053;48.618;10.024;2023-08-06T15:37:21;1.17;;;1.00;;
27642;SDS011;15053;48.618;10.024;2023-08-06T15:39:48;0.93;;;0.73;;
27642;SDS011;15053;48.618;10.024;2023-08-06T15:42:14;0.70;;;0.70;;
27642;SDS011;15053;48.618;10.024;2023-08-06T15:44:41;1.70;;;0.90;;
27642;SDS011;15053;48.618;10.024;2023-08-06T15:47:08;1.15;;;0.95;;
27642;SDS011;15053;48.618;10.024;2023-08-06T15:49:35;1.58;;;0.82;;
27642;SDS011;15053;48.618;10.024;2023-08-06T15:52:02;0.82;;;0.82;;
27642;SDS011;15053;48.618;10.024;2023-08-06T15:54:28;2.30;;;1.02;;
27642;SDS011;15053;48.618;10.024;2023-08-06T15:56:55;0.75;;;0.60;;
27642;SDS011;15053;48.618;10.024;2023-08-06T15:59:22;1.00;;;0.80;;
27642;SDS011;15053;48.618;10.024;2023-08-06T16:01:50;0.93;;;0.93;;